Time;durP1;ratioP1;P1;durP2;ratioP2;P2;SDS_P1;SDS_P2;PMS_P1;PMS_P2;Temp;Humidity;BMP_temperature;BMP_pressure;BME280_temperature;BME280_humidity;BME280_pressure;Samples;Min_cycle;Max_cycle;Signal;HPM_P1;HPM_P2
2021/11/22 00:01:07;;;;;;;19.70;9.00;;;;;;;9.48;100.00;100451.94;1778271;80;21093;-56
2021/11/22 00:03:34;;;;;;;15.98;8.60;;;;;;;9.46;100.00;100456.88;1773508;79;20973;-57
2021/11/22 00:06:01;;;;;;;17.23;8.90;;;;;;;9.48;100.00;100457.30;1780596;79;21115;-57
2021/11/22 00:08:28;;;;;;;15.10;8.23;;;;;;;9.43;100.00;100462.34;1780173;78;21981;-64
2021/11/22 00:10:55;;;;;;;15.85;8.73;;;;;;;9.43;100.00;100460.12;1782114;79;21111;-57
2021/11/22 00:13:22;;;;;;;16.82;9.13;;;;;;;9.41;100.00;100456.63;1783384;79;21116;-64
2021/11/22 00:15:51;;;;;;;18.15;9.28;;;;;;;9.40;100.00;100453.55;1770854;79;21033;-57
2021/11/22 00:18:20;;;;;;;16.80;9.08;;;;;;;9.39;100.00;100458.48;1766828;79;21046;-57
2021/11/22 00:20:49;;;;;;;19.32;9.85;;;;;;;9.38;100.00;100453.58;1776091;79;21023;-56
2021/11/22 00:23:17;;;;;;;15.50;9.38;;;;;;;9.36;100.00;100452.77;1766549;80;22128;-56
2021/11/22 00:25:46;;;;;;;19.82;8.95;;;;;;;9.38;100.00;100456.73;1766501;79;21042;-57
2021/11/22 00:28:13;;;;;;;15.83;9.15;;;;;;;9.40;100.00;100461.57;1772423;79;21021;-63
2021/11/22 00:30:42;;;;;;;16.10;9.03;;;;;;;9.41;100.00;100454.84;1761610;79;21388;-58
2021/11/22 00:33:11;;;;;;;19.50;9.50;;;;;;;9.43;100.00;100455.66;1771144;79;21016;-57
2021/11/22 00:35:49;;;;;;;17.45;10.10;;;;;;;9.45;100.00;100457.81;1767487;80;21069;-57
2021/11/22 00:38:16;;;;;;;19.95;9.13;;;;;;;9.45;100.00;100456.47;1769033;78;21054;-63
2021/11/22 00:40:44;;;;;;;17.67;9.13;;;;;;;9.44;100.00;100461.42;1774637;79;21088;-63
2021/11/22 00:43:11;;;;;;;24.30;8.50;;;;;;;9.41;100.00;100454.84;1772909;80;21102;-63
2021/11/22 00:45:39;;;;;;;19.85;8.70;;;;;;;9.40;100.00;100463.80;1777134;79;21415;-65
2021/11/22 00:48:06;;;;;;;16.85;8.55;;;;;;;9.37;100.00;100463.87;1768420;79;21459;-64
2021/11/22 00:50:35;;;;;;;17.23;9.58;;;;;;;9.34;100.00;100459.97;1767415;80;21630;-63
2021/11/22 00:53:03;;;;;;;16.30;8.53;;;;;;;9.29;100.00;100459.27;1771153;79;21051;-63
2021/11/22 00:55:32;;;;;;;14.93;9.20;;;;;;;9.25;100.00;100469.19;1774739;79;21077;-63
2021/11/22 00:57:59;;;;;;;16.32;8.80;;;;;;;9.22;100.00;100454.58;1767829;79;21418;-63
2021/11/22 01:00:26;;;;;;;15.50;8.80;;;;;;;9.19;100.00;100472.55;1763338;79;21104;-63
2021/11/22 01:02:53;;;;;;;15.83;8.80;;;;;;;9.13;100.00;100467.80;1775168;79;21109;-63
2021/11/22 01:05:20;;;;;;;15.72;8.78;;;;;;;9.10;100.00;100471.92;1770193;79;21220;-62
2021/11/22 01:07:48;;;;;;;15.43;8.83;;;;;;;9.13;100.00;100467.80;1768968;79;21104;-63
2021/11/22 01:10:15;;;;;;;19.55;9.73;;;;;;;9.14;100.00;100470.88;1776187;79;21033;-63
2021/11/22 01:12:42;;;;;;;15.28;8.85;;;;;;;9.14;100.00;100470.88;1771003;79;21430;-63
2021/11/22 01:15:13;;;;;;;18.00;9.30;;;;;;;9.10;100.00;100469.24;1768958;79;21048;-64
2021/11/22 01:17:40;;;;;;;14.30;8.00;;;;;;;9.06;100.00;100470.28;1768701;79;21123;-64
2021/11/22 01:20:09;;;;;;;14.50;8.85;;;;;;;9.07;100.00;100474.70;1774073;79;21768;-64
2021/11/22 01:22:37;;;;;;;15.40;8.55;;;;;;;9.04;100.00;100470.80;1773160;79;21016;-64
2021/11/22 01:25:06;;;;;;;20.15;9.43;;;;;;;9.05;100.00;100479.67;1766046;79;21077;-63
2021/11/22 01:27:33;;;;;;;17.30;9.38;;;;;;;9.04;100.00;100474.80;1765017;80;20990;-64
2021/11/22 01:30:00;;;;;;;15.13;9.43;;;;;;;9.01;100.00;100470.90;1774398;79;21049;-64
2021/11/22 01:32:27;;;;;;;17.80;9.78;;;;;;;8.97;100.00;100467.44;1767997;80;21486;-64
2021/11/22 01:34:54;;;;;;;14.50;8.65;;;;;;;8.94;100.00;100470.67;1763269;80;21121;-64
2021/11/22 01:37:21;;;;;;;15.48;8.45;;;;;;;8.87;100.00;100468.20;1766935;79;21573;-64
2021/11/22 01:39:48;;;;;;;17.98;9.55;;;;;;;8.86;100.00;100458.44;1765019;79;21043;-64
2021/11/22 01:42:15;;;;;;;14.35;9.45;;;;;;;8.84;100.00;100457.61;1770428;79;21088;-64
2021/11/22 01:44:44;;;;;;;18.35;10.18;;;;;;;8.83;100.00;100458.54;1767463;80;22003;-65
2021/11/22 01:47:11;;;;;;;12.93;8.93;;;;;;;8.81;100.00;100453.70;1771599;79;21037;-63
2021/11/22 01:49:40;;;;;;;16.45;8.85;;;;;;;8.77;100.00;100450.73;1775859;79;21484;-64
2021/11/22 01:52:07;;;;;;;14.33;8.55;;;;;;;8.75;100.00;100451.24;1772273;79;21076;-64
2021/11/22 01:54:34;;;;;;;13.55;8.45;;;;;;;8.72;100.00;100451.31;1766948;79;21524;-64
2021/11/22 01:57:01;;;;;;;13.55;8.13;;;;;;;8.69;100.00;100448.74;1772925;79;21505;-63
2021/11/22 01:59:28;;;;;;;14.68;8.83;;;;;;;8.67;100.00;100451.92;1770518;79;20989;-65
2021/11/22 02:01:55;;;;;;;13.22;8.33;;;;;;;8.67;100.00;100447.92;1728642;80;21432;-64
2021/11/22 02:04:22;;;;;;;15.98;9.53;;;;;;;8.69;100.00;100450.08;1775330;79;21131;-63
2021/11/22 02:06:49;;;;;;;14.75;9.30;;;;;;;8.72;100.00;100443.30;1760958;80;21056;-64
2021/11/22 02:09:18;;;;;;;14.28;9.23;;;;;;;8.78;100.00;100451.14;1767224;79;21061;-63
2021/11/22 02:11:45;;;;;;;14.70;8.88;;;;;;;8.81;100.00;100449.70;1767673;79;21070;-64
2021/11/22 02:14:13;;;;;;;18.02;10.03;;;;;;;8.85;100.00;100445.99;1769440;79;21041;-64
2021/11/22 02:16:41;;;;;;;16.20;9.58;;;;;;;8.89;100.00;100450.31;1774565;80;21050;-63
2021/11/22 02:19:08;;;;;;;18.73;10.68;;;;;;;8.94;100.00;100448.83;1772406;79;21078;-63
2021/11/22 02:21:35;;;;;;;17.42;10.08;;;;;;;8.97;100.00;100451.40;1771076;80;21044;-63
2021/11/22 02:24:02;;;;;;;20.77;11.28;;;;;;;9.02;100.00;100451.25;1757537;79;20997;-63
2021/11/22 02:26:48;;;;;;;18.23;10.98;;;;;;;9.03;100.00;100450.33;1785906;79;21071;-65
2021/11/22 02:29:16;;;;;;;21.75;11.65;;;;;;;9.09;100.00;100456.80;1819619;77;21048;-55
2021/11/22 02:31:43;;;;;;;22.42;11.28;;;;;;;9.15;100.00;100449.89;1813625;77;21021;-64
2021/11/22 02:34:13;;;;;;;24.27;11.50;;;;;;;9.17;100.00;100452.08;1820254;77;21117;-64
2021/11/22 02:36:40;;;;;;;19.98;11.12;;;;;;;9.21;100.00;100448.82;1817588;77;21742;-64
2021/11/22 02:39:07;;;;;;;20.00;11.03;;;;;;;9.23;100.00;100444.77;1822979;77;21048;-57
2021/11/22 02:41:35;;;;;;;17.12;11.50;;;;;;;9.24;100.00;100444.70;1823155;77;21477;-64
2021/11/22 02:44:03;;;;;;;19.80;11.20;;;;;;;9.26;100.00;100447.34;1788370;78;21071;-64
2021/11/22 02:46:30;;;;;;;18.52;11.50;;;;;;;9.28;100.00;100443.70;1791303;77;21494;-64
2021/11/22 02:48:56;;;;;;;18.10;11.00;;;;;;;9.30;100.00;100446.30;1816693;77;21457;-57
2021/11/22 02:51:23;;;;;;;22.00;11.90;;;;;;;9.33;100.00;100439.50;1819507;77;21269;-64
2021/11/22 02:54:00;;;;;;;22.58;11.73;;;;;;;9.33;100.00;100436.82;1767538;80;21553;-57
2021/11/22 02:56:34;;;;;;;18.48;11.00;;;;;;;9.33;100.00;100438.16;1765376;79;21131;-57
2021/11/22 02:59:03;;;;;;;18.42;11.22;;;;;;;9.33;100.00;100434.14;1776870;79;21441;-64
2021/11/22 03:01:30;;;;;;;22.73;10.98;;;;;;;9.29;100.00;100441.88;1768760;79;21024;-63
2021/11/22 03:03:57;;;;;;;19.92;11.28;;;;;;;9.29;100.00;100441.88;1785683;79;20969;-57
2021/11/22 03:06:24;;;;;;;27.15;10.60;;;;;;;9.31;100.00;100444.03;1813939;77;21427;-63
2021/11/22 03:08:51;;;;;;;24.30;10.48;;;;;;;9.31;100.00;100440.91;1816756;77;21110;-65
2021/11/22 03:11:20;;;;;;;16.65;9.93;;;;;;;9.32;100.00;100439.09;1817930;77;21035;-64
2021/11/22 03:13:48;;;;;;;16.27;9.75;;;;;;;9.35;100.00;100440.31;1823762;77;21028;-64
2021/11/22 03:16:16;;;;;;;13.58;8.48;;;;;;;9.37;100.00;100443.81;1822959;77;22108;-64
2021/11/22 03:18:45;;;;;;;17.02;9.50;;;;;;;9.38;100.00;100440.20;1815220;77;20993;-64
2021/11/22 03:21:12;;;;;;;14.73;9.03;;;;;;;9.45;100.00;100437.74;1749205;80;21037;-64
2021/11/22 03:23:41;;;;;;;17.20;9.25;;;;;;;9.52;100.00;100437.52;1770538;79;21840;-64
2021/11/22 03:26:07;;;;;;;18.67;10.23;;;;;;;9.56;100.00;100435.13;1808487;77;21080;-64
2021/11/22 03:28:35;;;;;;;20.45;9.93;;;;;;;9.58;100.00;100434.61;1766263;79;21022;-64
2021/11/22 03:31:01;;;;;;;18.87;10.32;;;;;;;9.59;100.00;100437.70;1764462;79;21115;-57
2021/11/22 03:33:29;;;;;;;17.98;10.15;;;;;;;9.60;100.00;100438.99;1823754;77;21484;-63
2021/11/22 03:35:56;;;;;;;18.07;10.08;;;;;;;9.61;100.00;100442.52;1819827;77;22371;-64
2021/11/22 03:38:25;;;;;;;20.57;10.95;;;;;;;9.62;100.00;100446.09;1819905;77;21421;-64
2021/11/22 03:40:54;;;;;;;19.40;10.48;;;;;;;9.61;100.00;100445.20;1816009;77;21043;-63
2021/11/22 03:43:28;;;;;;;20.62;10.80;;;;;;;9.61;100.00;100438.51;1824868;77;21484;-64
2021/11/22 03:45:53;;;;;;;19.07;10.95;;;;;;;9.65;100.00;100435.27;1827156;77;21132;-56
2021/11/22 03:48:20;;;;;;;24.23;12.43;;;;;;;9.67;100.00;100434.30;1822294;77;21971;-64
2021/11/22 03:50:47;;;;;;;20.65;11.78;;;;;;;9.68;100.00;100434.70;1800115;77;21402;-64
2021/11/22 03:53:15;;;;;;;20.95;11.60;;;;;;;9.70;100.00;100438.65;1823382;77;21036;-57
2021/11/22 03:55:42;;;;;;;21.12;12.35;;;;;;;9.70;100.00;100438.20;1814237;77;21435;-56
2021/11/22 03:58:09;;;;;;;23.10;12.53;;;;;;;9.71;100.00;100446.63;1816970;77;21090;-57
2021/11/22 04:00:36;;;;;;;23.57;12.95;;;;;;;9.75;100.00;100456.30;1819410;77;21115;-57
2021/11/22 04:03:03;;;;;;;22.13;13.15;;;;;;;9.81;100.00;100458.33;1816587;77;21741;-57
2021/11/22 04:05:30;;;;;;;24.40;12.25;;;;;;;9.82;100.00;100454.28;1818899;77;21102;-57
2021/11/22 04:07:57;;;;;;;24.80;12.20;;;;;;;9.83;100.00;100459.15;1820053;77;21027;-58
2021/11/22 04:10:24;;;;;;;21.77;13.18;;;;;;;9.84;100.00;100458.25;1816569;77;21465;-59
2021/11/22 04:12:52;;;;;;;20.57;11.50;;;;;;;9.85;100.00;100449.28;1822816;77;21774;-57
2021/11/22 04:15:19;;;;;;;20.80;11.53;;;;;;;9.85;100.00;100449.28;1817381;77;21009;-57
2021/11/22 04:17:47;;;;;;;24.30;12.05;;;;;;;9.87;100.00;100456.80;1819028;77;20970;-57
2021/11/22 04:20:14;;;;;;;25.23;12.60;;;;;;;9.91;100.00;100457.08;1823923;77;21560;-58
2021/11/22 04:22:41;;;;;;;22.15;12.28;;;;;;;9.94;100.00;100459.64;1824112;77;20993;-56
2021/11/22 04:25:09;;;;;;;20.92;12.05;;;;;;;9.95;100.00;100461.39;1814792;77;21081;-57
2021/11/22 04:27:36;;;;;;;22.13;12.78;;;;;;;9.94;100.00;100456.97;1819209;77;21058;-63
2021/11/22 04:30:05;;;;;;;22.58;12.15;;;;;;;9.93;100.00;100459.23;1836487;77;21080;-56
2021/11/22 04:32:34;;;;;;;18.90;11.60;;;;;;;9.95;100.00;100454.69;1844534;77;21059;-57
2021/11/22 04:35:06;;;;;;;20.88;11.57;;;;;;;9.98;100.00;100461.27;1833672;77;21584;-57
2021/11/22 04:37:33;;;;;;;20.62;11.88;;;;;;;9.99;100.00;100462.16;1843290;77;21627;-58
2021/11/22 04:40:01;;;;;;;20.55;11.85;;;;;;;10.01;100.00;100463.83;1840638;77;22121;-58
2021/11/22 04:42:29;;;;;;;20.52;11.78;;;;;;;10.06;100.00;100464.12;1829478;77;21058;-58
2021/11/22 04:44:56;;;;;;;18.05;11.73;;;;;;;10.11;100.00;100469.72;1841835;77;21051;-56
2021/11/22 04:47:22;;;;;;;19.55;11.83;;;;;;;10.15;100.00;100472.69;1811005;77;21073;-57
2021/11/22 04:49:50;;;;;;;20.10;11.60;;;;;;;10.17;100.00;100478.00;1817089;77;21691;-57
2021/11/22 04:52:17;;;;;;;20.70;12.55;;;;;;;10.14;100.00;100475.44;1819483;77;21056;-57
2021/11/22 04:54:44;;;;;;;21.33;12.95;;;;;;;10.13;100.00;100474.55;1812620;77;21561;-57
2021/11/22 04:57:13;;;;;;;22.90;13.40;;;;;;;10.11;100.00;100471.54;1809681;77;38331;-56
2021/11/22 04:59:41;;;;;;;21.17;12.90;;;;;;;10.07;100.00;100479.29;1816898;77;21253;-57
2021/11/22 05:02:10;;;;;;;22.62;12.90;;;;;;;10.03;100.00;100477.18;1809645;77;21799;-63
2021/11/22 05:04:37;;;;;;;22.37;13.62;;;;;;;10.05;100.00;100490.05;1808282;77;21017;-58
2021/11/22 05:07:04;;;;;;;23.67;13.68;;;;;;;10.06;100.00;100494.92;1795960;77;21104;-57
2021/11/22 05:09:31;;;;;;;22.70;13.28;;;;;;;10.07;100.00;100495.36;1813092;77;21453;-57
2021/11/22 05:11:58;;;;;;;26.15;14.45;;;;;;;10.01;100.00;100498.65;1817353;77;21387;-57
2021/11/22 05:14:26;;;;;;;23.10;12.78;;;;;;;9.97;100.00;100504.20;1810391;77;21149;-56
2021/11/22 05:16:53;;;;;;;23.22;13.85;;;;;;;9.94;100.00;100497.13;1816580;77;21103;-57
2021/11/22 05:19:20;;;;;;;24.07;14.28;;;;;;;9.97;100.00;100502.86;1822085;77;21473;-57
2021/11/22 05:21:47;;;;;;;23.90;13.83;;;;;;;9.98;100.00;100512.16;1815635;77;21014;-58
2021/11/22 05:24:14;;;;;;;23.73;13.93;;;;;;;9.99;100.00;100509.89;1811134;77;21099;-56
2021/11/22 05:26:41;;;;;;;22.22;13.00;;;;;;;9.99;100.00;100512.56;1812746;77;21280;-57
2021/11/22 05:29:08;;;;;;;21.12;13.20;;;;;;;9.95;100.00;100523.47;1815918;77;21664;-57
2021/11/22 05:31:36;;;;;;;20.80;12.25;;;;;;;9.91;100.00;100528.05;1814766;77;21034;-58
2021/11/22 05:34:03;;;;;;;21.10;13.25;;;;;;;9.89;100.00;100524.55;1813234;77;21083;-63
2021/11/22 05:36:31;;;;;;;22.95;12.63;;;;;;;9.89;100.00;100527.23;1817275;77;21470;-65
2021/11/22 05:38:58;;;;;;;23.77;13.18;;;;;;;9.87;100.00;100527.27;1809456;77;21116;-64
2021/11/22 05:41:25;;;;;;;21.82;12.65;;;;;;;9.82;100.00;100533.71;1814107;77;20996;-58
2021/11/22 05:43:53;;;;;;;26.52;13.45;;;;;;;9.75;100.00;100533.08;1811006;77;21020;-59
2021/11/22 05:46:20;;;;;;;21.77;12.95;;;;;;;9.72;100.00;100542.08;1807310;77;21065;-64
2021/11/22 05:48:47;;;;;;;24.95;13.70;;;;;;;9.74;100.00;100542.90;1809970;77;21006;-65
2021/11/22 05:51:14;;;;;;;27.60;13.38;;;;;;;9.74;100.00;100541.56;1819043;77;21013;-64
2021/11/22 05:53:43;;;;;;;21.40;11.83;;;;;;;9.74;100.00;100544.23;1808766;77;21028;-63
2021/11/22 05:56:10;;;;;;;21.87;12.37;;;;;;;9.74;100.00;100554.95;1816529;77;21490;-57
2021/11/22 05:58:36;;;;;;;21.35;12.47;;;;;;;9.72;100.00;100549.22;1815518;77;21046;-63
2021/11/22 06:01:05;;;;;;;19.80;11.28;;;;;;;9.71;100.00;100555.50;1808934;77;21077;-64
2021/11/22 06:03:32;;;;;;;24.70;12.45;;;;;;;9.71;100.00;100546.14;1809803;77;21152;-64
2021/11/22 06:05:59;;;;;;;24.25;13.58;;;;;;;9.73;100.00;100555.87;1812673;77;21111;-64
2021/11/22 06:08:26;;;;;;;24.82;12.30;;;;;;;9.71;100.00;100557.73;1818177;77;22927;-64
2021/11/22 06:10:53;;;;;;;21.63;11.97;;;;;;;9.71;100.00;100551.04;1813912;77;21485;-64
2021/11/22 06:13:21;;;;;;;26.00;11.95;;;;;;;9.70;100.00;100554.65;1812767;77;21031;-65
2021/11/22 06:15:50;;;;;;;20.40;12.05;;;;;;;9.71;100.00;100545.69;1810304;77;20919;-64
2021/11/22 06:18:17;;;;;;;23.45;12.63;;;;;;;9.74;100.00;100547.39;1819130;77;21491;-64
2021/11/22 06:20:45;;;;;;;22.32;12.98;;;;;;;9.77;100.00;100555.31;1816310;77;21011;-58
2021/11/22 06:23:12;;;;;;;23.52;12.07;;;;;;;9.79;100.00;100560.59;1813264;77;21004;-58
2021/11/22 06:25:38;;;;;;;26.75;11.95;;;;;;;9.84;100.00;100566.69;1808110;77;21029;-58
2021/11/22 06:28:05;;;;;;;23.80;11.22;;;;;;;9.87;100.00;100562.09;1822104;77;21638;-57
2021/11/22 06:30:33;;;;;;;17.48;10.45;;;;;;;9.89;100.00;100556.20;1823516;77;21045;-59
2021/11/22 06:33:00;;;;;;;18.00;10.78;;;;;;;9.90;100.00;100561.11;1815791;77;21041;-57
2021/11/22 06:35:26;;;;;;;17.45;10.58;;;;;;;9.90;100.00;100562.45;1817157;77;21075;-65
2021/11/22 06:37:53;;;;;;;17.55;10.35;;;;;;;9.93;100.00;100566.80;1814446;77;21432;-64
2021/11/22 06:40:20;;;;;;;17.62;10.60;;;;;;;9.95;100.00;100565.84;1819799;77;21762;-58
2021/11/22 06:42:47;;;;;;;17.77;10.38;;;;;;;9.98;100.00;100572.42;1811908;77;21466;-65
2021/11/22 06:45:17;;;;;;;19.17;10.63;;;;;;;10.02;100.00;100567.84;1810122;77;21241;-60
2021/11/22 06:47:44;;;;;;;19.05;9.98;;;;;;;10.04;100.00;100564.16;1819392;77;21517;-65
2021/11/22 06:50:12;;;;;;;16.23;9.90;;;;;;;10.09;99.65;100566.67;1819838;77;21056;-58
2021/11/22 06:52:38;;;;;;;16.15;9.35;;;;;;;10.10;99.25;100570.25;1810790;77;21081;-64
2021/11/22 06:55:07;;;;;;;17.92;9.78;;;;;;;10.14;99.02;100564.70;1812888;77;21044;-58
2021/11/22 06:57:34;;;;;;;18.87;9.98;;;;;;;10.17;98.61;100565.95;1816795;77;21134;-58
2021/11/22 07:00:04;;;;;;;19.20;10.13;;;;;;;10.17;98.11;100569.08;1813579;77;21629;-60
2021/11/22 07:02:32;;;;;;;18.00;10.72;;;;;;;10.18;97.86;100572.17;1813743;77;21075;-57
2021/11/22 07:05:01;;;;;;;18.80;11.10;;;;;;;10.18;97.58;100569.49;1816235;77;21430;-58
2021/11/22 07:07:29;;;;;;;20.30;11.48;;;;;;;10.16;97.26;100569.53;1817132;77;21065;-57
2021/11/22 07:09:57;;;;;;;21.60;11.75;;;;;;;10.16;97.16;100570.02;1817721;77;21091;-65
2021/11/22 07:12:24;;;;;;;21.45;11.83;;;;;;;10.16;96.98;100572.70;1815628;77;21051;-65
2021/11/22 07:14:51;;;;;;;19.75;12.30;;;;;;;10.15;96.62;100578.98;1817352;77;21031;-58
2021/11/22 07:17:18;;;;;;;23.15;12.70;;;;;;;10.12;95.96;100571.92;1817275;77;21080;-57
2021/11/22 07:19:46;;;;;;;21.20;13.10;;;;;;;9.99;95.04;100572.83;1819817;77;21056;-59
2021/11/22 07:22:13;;;;;;;22.80;13.60;;;;;;;9.94;95.27;100573.46;1813040;77;21087;-65
2021/11/22 07:24:41;;;;;;;25.80;13.40;;;;;;;9.88;95.61;100573.20;1815970;77;21077;-56
2021/11/22 07:27:09;;;;;;;21.00;12.93;;;;;;;9.87;95.32;100574.14;1814387;77;21100;-58
2021/11/22 07:29:37;;;;;;;21.55;12.93;;;;;;;9.82;95.08;100576.10;1817478;77;22432;-66
2021/11/22 07:32:05;;;;;;;18.23;11.50;;;;;;;9.80;95.07;100577.97;1818863;77;20976;-65
2021/11/22 07:34:32;;;;;;;20.92;12.03;;;;;;;9.82;95.15;100579.23;1771255;79;21700;-66
2021/11/22 07:36:59;;;;;;;27.17;13.70;;;;;;;9.85;94.94;100592.55;1777028;79;21087;-58
2021/11/22 07:39:26;;;;;;;20.08;13.03;;;;;;;9.81;94.07;100593.55;1774282;79;21082;-64
2021/11/22 07:41:56;;;;;;;20.48;12.25;;;;;;;9.73;94.10;100586.66;1772768;79;21051;-57
2021/11/22 07:44:29;;;;;;;27.27;14.25;;;;;;;9.62;93.65;100587.95;1787727;79;21354;-58
2021/11/22 07:46:56;;;;;;;29.18;15.18;;;;;;;9.52;93.96;100589.62;1783457;79;21163;-59
2021/11/22 07:49:25;;;;;;;24.98;13.45;;;;;;;9.46;94.25;100600.05;1769075;79;21038;-57
2021/11/22 07:51:52;;;;;;;23.42;13.25;;;;;;;9.36;93.81;100590.55;1817345;77;21071;-58
2021/11/22 07:54:19;;;;;;;24.15;13.30;;;;;;;9.16;93.70;100596.56;1816542;77;21572;-58
2021/11/22 07:56:46;;;;;;;23.80;14.55;;;;;;;9.03;94.75;100587.56;1820277;77;21591;-58
2021/11/22 07:59:13;;;;;;;28.45;16.62;;;;;;;8.93;95.20;100598.15;1819656;77;21663;-57
2021/11/22 08:01:41;;;;;;;30.48;15.25;;;;;;;8.81;95.83;100588.70;1817005;77;21052;-58
2021/11/22 08:04:13;;;;;;;23.52;13.25;;;;;;;8.69;96.32;100591.73;1817393;77;21595;-58
2021/11/22 08:06:39;;;;;;;35.15;16.52;;;;;;;8.53;97.11;100593.98;1814018;77;21854;-58
2021/11/22 08:09:13;;;;;;;25.48;14.23;;;;;;;8.41;97.47;100591.17;1819014;77;21059;-58
2021/11/22 08:11:45;;;;;;;25.60;14.15;;;;;;;8.46;98.67;100595.92;1815107;77;21088;-59
2021/11/22 08:14:04;;;;;;;28.77;15.78;;;;;;;8.47;98.79;100597.67;1818899;77;21505;-60
2021/11/22 08:16:31;;;;;;;35.48;17.20;;;;;;;8.50;99.14;100594.08;1817094;77;20997;-61
2021/11/22 08:18:58;;;;;;;41.00;18.48;;;;;;;8.49;99.29;100597.64;1797154;77;22038;-58
2021/11/22 08:21:25;;;;;;;39.38;18.25;;;;;;;8.58;99.96;100595.61;1822375;77;20976;-58
2021/11/22 08:23:52;;;;;;;37.38;19.92;;;;;;;8.68;100.00;100601.56;1817113;77;21075;-62
2021/11/22 08:26:19;;;;;;;37.83;20.72;;;;;;;8.78;100.00;100607.96;1816676;77;21586;-63
2021/11/22 08:28:46;;;;;;;36.88;21.85;;;;;;;8.85;100.00;100601.05;1817134;77;21000;-60
2021/11/22 08:31:14;;;;;;;36.50;20.68;;;;;;;8.93;99.68;100599.94;1816744;77;22221;-59
2021/11/22 08:33:41;;;;;;;33.33;19.30;;;;;;;8.97;99.19;100601.62;1814914;77;21071;-65
2021/11/22 08:36:08;;;;;;;39.85;19.67;;;;;;;9.00;98.38;100600.19;1815290;77;21719;-64
2021/11/22 08:38:36;;;;;;;41.18;19.37;;;;;;;9.00;98.22;100598.84;1819366;77;21157;-65
2021/11/22 08:41:03;;;;;;;38.88;21.10;;;;;;;8.97;97.63;100592.27;1816290;77;21102;-64
2021/11/22 08:43:31;;;;;;;38.23;17.10;;;;;;;8.91;97.88;100593.77;1813461;77;21112;-57
2021/11/22 08:45:59;;;;;;;40.73;17.70;;;;;;;8.91;98.37;100597.33;1816517;77;21494;-57
2021/11/22 08:48:27;;;;;;;27.60;16.70;;;;;;;8.97;98.40;100594.45;1821485;77;21082;-58
2021/11/22 08:50:54;;;;;;;28.00;16.20;;;;;;;9.02;98.19;100597.86;1812985;77;21092;-59
2021/11/22 08:53:22;;;;;;;32.60;18.17;;;;;;;9.02;97.05;100590.31;1819894;77;21055;-58
2021/11/22 08:55:49;;;;;;;32.15;18.00;;;;;;;8.91;96.82;100593.77;1819205;77;21745;-57
2021/11/22 08:58:16;;;;;;;47.25;21.33;;;;;;;8.83;97.09;100597.55;1818949;77;21146;-58
2021/11/22 09:00:43;;;;;;;46.45;21.23;;;;;;;8.80;97.23;100600.33;1817013;77;21207;-60
2021/11/22 09:03:12;;;;;;;45.43;21.62;;;;;;;8.80;97.78;100597.66;1814671;77;21051;-60
2021/11/22 09:05:39;;;;;;;57.50;23.55;;;;;;;8.87;98.17;100593.86;1817824;77;21063;-58
2021/11/22 09:08:08;;;;;;;63.15;25.27;;;;;;;8.99;98.47;100599.77;1819167;77;21355;-58
2021/11/22 09:10:36;;;;;;;47.53;23.52;;;;;;;9.09;98.38;100595.02;1818710;77;21052;-58
2021/11/22 09:13:04;;;;;;;63.63;24.37;;;;;;;9.17;98.04;100592.95;1813085;77;21061;-58
2021/11/22 09:15:32;;;;;;;44.73;24.00;;;;;;;9.16;97.57;100594.74;1813274;77;21770;-58
2021/11/22 09:17:59;;;;;;;54.27;23.60;;;;;;;9.20;97.37;100597.34;1815599;77;21199;-60
2021/11/22 09:20:28;;;;;;;55.95;30.00;;;;;;;9.19;96.76;100596.94;1814971;77;21135;-57
2021/11/22 09:22:57;;;;;;;48.85;27.02;;;;;;;9.15;96.96;100598.83;1816812;77;21045;-58
2021/11/22 09:25:25;;;;;;;72.95;36.10;;;;;;;9.19;97.07;100599.61;1817700;77;21114;-58
2021/11/22 09:27:52;;;;;;;64.05;31.12;;;;;;;9.17;96.50;100596.53;1820008;77;21053;-57
2021/11/22 09:30:20;;;;;;;71.57;33.38;;;;;;;9.18;96.71;100602.73;1810260;77;21028;-58
2021/11/22 09:32:47;;;;;;;73.30;34.58;;;;;;;9.24;96.90;100603.87;1810727;77;21199;-57
2021/11/22 09:35:14;;;;;;;64.77;34.13;;;;;;;9.27;96.53;100600.23;1812610;78;21049;-60
2021/11/22 09:37:41;;;;;;;77.10;34.30;;;;;;;9.35;97.10;100605.34;1826790;76;21083;-57
2021/11/22 09:40:10;;;;;;;88.58;44.90;;;;;;;9.45;96.52;100606.33;1824552;77;21060;-57
2021/11/22 09:42:37;;;;;;;89.95;41.33;;;;;;;9.48;96.31;100606.67;1821000;76;21631;-57
2021/11/22 09:45:11;;;;;;;84.72;44.65;;;;;;;9.57;96.53;100605.50;1818354;76;21792;-58
2021/11/22 09:47:37;;;;;;;69.95;37.75;;;;;;;9.69;96.39;100606.44;1818565;77;21484;-57
2021/11/22 09:50:07;;;;;;;76.37;37.28;;;;;;;9.83;96.17;100608.64;1822809;76;20893;-58
2021/11/22 09:52:35;;;;;;;82.62;40.23;;;;;;;9.96;95.87;100606.41;1824112;76;21419;-57
2021/11/22 09:55:04;;;;;;;74.15;38.92;;;;;;;10.07;95.43;100602.50;1820163;77;21071;-57
2021/11/22 09:57:31;;;;;;;74.07;38.55;;;;;;;10.18;95.09;100594.95;1821014;76;21098;-56
2021/11/22 09:59:58;;;;;;;86.25;46.20;;;;;;;10.29;94.71;100600.81;1823913;77;21040;-57
2021/11/22 10:02:51;;;;;;;70.50;39.78;;;;;;;10.37;94.25;100603.17;1819828;76;21611;-57
2021/11/22 10:05:35;;;;;;;76.65;40.15;;;;;;;10.46;93.84;100606.02;1826565;77;21508;-58
2021/11/22 10:08:11;;;;;;;70.72;35.15;;;;;;;10.52;93.34;100602.25;1830314;76;21765;-58
2021/11/22 10:10:48;;;;;;;82.33;39.30;;;;;;;10.57;92.80;100597.13;1815762;77;21120;-58
2021/11/22 10:13:26;;;;;;;88.50;41.40;;;;;;;10.60;92.38;100599.70;1822675;77;20952;-58
2021/11/22 10:16:02;;;;;;;82.57;40.28;;;;;;;10.64;91.98;100603.14;1817368;77;21522;-58
2021/11/22 10:18:31;;;;;;;79.97;42.55;;;;;;;10.71;91.78;100602.42;1739732;81;22234;-58
2021/11/22 10:21:07;;;;;;;72.58;40.17;;;;;;;10.79;91.51;100600.79;1732071;79;21078;-58
2021/11/22 10:23:37;;;;;;;74.20;37.38;;;;;;;10.90;91.44;100606.63;1751292;79;21153;-57
2021/11/22 10:26:05;;;;;;;61.90;35.03;;;;;;;11.00;90.80;100606.66;1774545;79;21064;-58
2021/11/22 10:28:41;;;;;;;68.57;34.30;;;;;;;11.03;90.02;100611.05;1778615;78;21059;-59
2021/11/22 10:31:24;;;;;;;67.43;37.07;;;;;;;11.07;89.83;100607.30;1804570;77;21340;-57
2021/11/22 10:33:57;;;;;;;63.17;35.50;;;;;;;11.14;89.31;100608.80;1764386;79;21122;-57
2021/11/22 10:36:25;;;;;;;65.57;37.38;;;;;;;11.18;88.83;100603.75;1796344;78;21548;-57
2021/11/22 10:38:57;;;;;;;79.70;44.35;;;;;;;11.23;88.56;100602.68;1795980;78;21051;-58
2021/11/22 10:41:35;;;;;;;73.10;38.35;;;;;;;11.21;87.53;100608.09;1797440;77;21042;-58
2021/11/22 10:44:12;;;;;;;100.42;44.63;;;;;;;11.08;87.35;100601.00;1799085;78;21027;-57
2021/11/22 10:46:49;;;;;;;66.65;36.03;;;;;;;10.95;87.07;100606.47;1790768;78;21079;-57
2021/11/22 10:49:31;;;;;;;63.65;34.90;;;;;;;10.80;87.53;100606.11;1798491;78;21079;-58
2021/11/22 10:52:25;;;;;;;79.55;36.05;;;;;;;10.66;87.87;100594.58;1797881;78;21010;-58
2021/11/22 10:54:59;;;;;;;67.62;36.53;;;;;;;10.55;88.54;100590.95;1796153;78;21760;-58
2021/11/22 10:57:44;;;;;;;76.28;36.77;;;;;;;10.52;88.88;100601.80;1748274;79;21539;-57
2021/11/22 11:00:25;;;;;;;83.33;40.23;;;;;;;10.50;89.28;100589.37;1751349;79;21070;-64
2021/11/22 11:02:55;;;;;;;116.80;61.80;;;;;;;10.51;89.48;100593.80;1757016;80;21108;-64
2021/11/22 11:05:32;;;;;;;106.95;54.25;;;;;;;10.48;89.62;100591.23;1749593;79;21643;-58
2021/11/22 11:08:01;;;;;;;69.35;36.05;;;;;;;10.48;89.80;100589.90;1748870;79;21055;-57
2021/11/22 11:10:29;;;;;;;73.62;37.08;;;;;;;10.44;89.24;100582.42;1748733;79;20991;-57
2021/11/22 11:12:57;;;;;;;60.40;33.58;;;;;;;10.25;88.99;100582.20;1749557;79;21103;-64
2021/11/22 11:15:26;;;;;;;56.20;31.55;;;;;;;10.07;89.65;100585.09;1747107;79;21086;-62
2021/11/22 11:17:53;;;;;;;60.38;32.05;;;;;;;10.00;90.32;100586.63;1719233;81;21096;-64